Time;durP1;ratioP1;P1;durP2;ratioP2;P2;SDS_P1;SDS_P2;PMS_P1;PMS_P2;Temp;Humidity;BMP_temperature;BMP_pressure;BME280_temperature;BME280_humidity;BME280_pressure;Samples;Min_cycle;Max_cycle;Signal;HPM_P1;HPM_P2
2021/10/27 00:01:42;;;;;;;14.30;9.07;;;7.30;99.90;;;;;;5050489;28;20490;-51
2021/10/27 00:04:09;;;;;;;15.33;9.00;;;7.20;99.90;;;;;;5052697;28;20453;-50
2021/10/27 00:06:37;;;;;;;13.20;8.90;;;7.10;99.90;;;;;;5052592;28;20980;-50
2021/10/27 00:09:06;;;;;;;13.87;9.03;;;6.90;99.90;;;;;;5049600;28;20993;-50
2021/10/27 00:11:33;;;;;;;17.50;9.07;;;6.90;99.90;;;;;;5051763;28;20444;-51
2021/10/27 00:14:01;;;;;;;14.90;9.10;;;7.00;99.90;;;;;;5041865;28;20958;-51
2021/10/27 00:16:28;;;;;;;15.97;10.10;;;7.00;99.90;;;;;;5052492;28;20458;-51
2021/10/27 00:18:56;;;;;;;13.47;9.43;;;7.00;99.90;;;;;;5050287;28;21008;-51
2021/10/27 00:21:23;;;;;;;16.57;8.83;;;6.90;99.90;;;;;;5047200;28;20896;-51
2021/10/27 00:23:50;;;;;;;12.37;8.93;;;6.90;99.90;;;;;;5049777;28;20460;-51
2021/10/27 00:26:17;;;;;;;12.93;8.30;;;6.80;99.90;;;;;;5051543;28;20448;-51
2021/10/27 00:28:45;;;;;;;12.40;7.50;;;6.90;99.90;;;;;;5045422;28;20500;-50
2021/10/27 00:31:12;;;;;;;12.60;8.43;;;6.90;99.90;;;;;;5032167;28;20452;-51
2021/10/27 00:33:40;;;;;;;13.20;8.40;;;6.90;99.90;;;;;;5042643;28;20968;-50
2021/10/27 00:36:08;;;;;;;16.43;7.90;;;6.90;99.90;;;;;;5051912;28;20460;-50
2021/10/27 00:38:36;;;;;;;12.43;8.10;;;6.80;99.90;;;;;;5051774;28;20525;-49
2021/10/27 00:41:03;;;;;;;10.80;7.60;;;6.80;99.90;;;;;;5052108;28;20490;-51
2021/10/27 00:43:31;;;;;;;13.93;8.57;;;6.80;99.90;;;;;;5047331;28;20460;-51
2021/10/27 00:45:58;;;;;;;11.40;7.30;;;6.80;99.90;;;;;;5043910;28;20459;-50
2021/10/27 00:48:25;;;;;;;13.60;7.77;;;6.80;99.90;;;;;;5038436;28;20465;-51
2021/10/27 00:50:52;;;;;;;11.47;8.00;;;6.80;99.90;;;;;;5039120;28;20454;-51
2021/10/27 00:53:20;;;;;;;12.80;7.80;;;6.80;99.90;;;;;;5051486;28;20452;-51
2021/10/27 00:55:48;;;;;;;11.00;8.17;;;6.80;99.90;;;;;;5052148;28;20455;-51
2021/10/27 00:58:15;;;;;;;11.63;7.63;;;6.80;99.90;;;;;;5050847;28;20468;-51
2021/10/27 01:00:43;;;;;;;17.03;8.80;;;6.80;99.90;;;;;;5049506;28;21022;-50
2021/10/27 01:03:10;;;;;;;10.60;7.80;;;6.80;99.90;;;;;;5043713;28;20938;-50
2021/10/27 01:05:37;;;;;;;11.00;7.70;;;6.70;99.90;;;;;;5047959;28;20451;-50
2021/10/27 01:08:05;;;;;;;12.77;7.97;;;6.70;99.90;;;;;;5040667;28;20472;-50
2021/10/27 01:10:33;;;;;;;13.30;8.03;;;6.70;99.90;;;;;;5049662;28;20509;-50
2021/10/27 01:13:01;;;;;;;11.63;7.57;;;6.80;99.90;;;;;;5045685;28;20486;-50
2021/10/27 01:15:28;;;;;;;12.93;8.10;;;6.70;99.90;;;;;;5045566;28;20528;-50
2021/10/27 01:17:55;;;;;;;13.10;8.37;;;6.70;99.90;;;;;;5051372;28;20537;-51
2021/10/27 01:20:24;;;;;;;12.13;7.60;;;6.70;99.90;;;;;;5051270;28;20448;-51
2021/10/27 01:22:51;;;;;;;11.67;7.53;;;6.70;99.90;;;;;;5051301;28;20516;-51
2021/10/27 01:25:18;;;;;;;10.40;7.83;;;6.60;99.90;;;;;;5051283;28;20456;-51
2021/10/27 01:27:47;;;;;;;11.87;7.70;;;6.60;99.90;;;;;;5040406;28;20487;-50
2021/10/27 01:32:47;;;;;;;11.10;7.20;;;6.50;99.90;;;;;;5045255;22;20552;-52
2021/10/27 01:35:15;;;;;;;14.20;7.93;;;6.50;99.90;;;;;;5020626;28;20441;-51
2021/10/27 01:37:45;;;;;;;10.60;7.90;;;6.50;99.90;;;;;;5030870;28;20443;-52
2021/10/27 01:40:14;;;;;;;9.73;6.90;;;6.50;99.90;;;;;;5031465;28;20446;-51
2021/10/27 01:42:42;;;;;;;12.13;7.67;;;6.50;99.90;;;;;;5030204;28;20574;-51
2021/10/27 01:45:09;;;;;;;11.13;7.00;;;6.50;99.90;;;;;;5022404;28;20838;-52
2021/10/27 01:47:37;;;;;;;9.57;6.27;;;6.50;99.90;;;;;;5029604;28;20500;-51
2021/10/27 01:50:04;;;;;;;9.10;5.83;;;6.50;99.90;;;;;;5030479;28;20882;-53
2021/10/27 01:52:31;;;;;;;7.63;6.17;;;6.50;99.90;;;;;;5029943;28;20471;-53
2021/10/27 01:55:00;;;;;;;10.40;7.27;;;6.40;99.90;;;;;;5022688;28;20449;-53
2021/10/27 01:57:28;;;;;;;8.83;6.20;;;6.30;99.90;;;;;;5022931;28;20882;-53
2021/10/27 01:59:55;;;;;;;14.20;7.80;;;6.30;99.90;;;;;;5031084;28;20871;-53
2021/10/27 02:02:22;;;;;;;9.93;6.40;;;6.30;99.90;;;;;;5032836;28;20573;-52
2021/10/27 02:04:49;;;;;;;10.10;6.70;;;6.10;99.90;;;;;;5026174;28;20448;-52
2021/10/27 02:07:16;;;;;;;10.53;6.80;;;6.10;99.90;;;;;;5028744;28;20526;-51
2021/10/27 02:09:43;;;;;;;9.57;6.30;;;6.10;99.90;;;;;;5034276;28;20499;-52
2021/10/27 02:12:11;;;;;;;9.97;6.90;;;6.00;99.90;;;;;;5033870;28;20470;-52
2021/10/27 02:14:38;;;;;;;9.10;7.10;;;5.80;99.90;;;;;;5032668;28;20483;-52
2021/10/27 02:17:05;;;;;;;11.17;6.53;;;5.70;99.90;;;;;;5032130;28;20510;-51
2021/10/27 02:19:32;;;;;;;9.20;7.00;;;5.70;99.90;;;;;;5034896;28;20969;-51
2021/10/27 02:21:59;;;;;;;10.60;7.20;;;5.70;99.90;;;;;;5034346;28;20484;-52
2021/10/27 02:24:26;;;;;;;8.77;6.60;;;5.70;99.90;;;;;;5034882;28;20452;-53
2021/10/27 02:26:54;;;;;;;9.27;6.50;;;5.80;99.90;;;;;;5025299;28;20449;-54
2021/10/27 02:29:22;;;;;;;8.50;6.70;;;5.80;99.90;;;;;;5030420;28;20449;-53
2021/10/27 02:31:49;;;;;;;7.93;6.50;;;5.80;99.90;;;;;;5033695;28;20500;-53
2021/10/27 02:34:16;;;;;;;8.00;6.90;;;5.90;99.90;;;;;;5034851;28;20519;-51
2021/10/27 02:36:43;;;;;;;8.10;5.97;;;5.90;99.90;;;;;;5026854;28;20450;-53
2021/10/27 02:39:10;;;;;;;10.20;6.77;;;6.00;99.90;;;;;;5014936;28;20500;-54
2021/10/27 02:41:37;;;;;;;10.23;6.70;;;5.80;99.90;;;;;;5014668;28;20498;-54
2021/10/27 02:44:05;;;;;;;9.50;6.10;;;5.90;99.90;;;;;;5033265;28;20504;-53
2021/10/27 02:46:34;;;;;;;10.13;6.30;;;5.90;99.90;;;;;;5030016;28;20457;-54
2021/10/27 02:49:00;;;;;;;9.60;6.37;;;5.90;99.90;;;;;;5034318;28;20449;-53
2021/10/27 02:51:27;;;;;;;11.90;6.57;;;5.90;99.90;;;;;;5034086;28;20469;-53
2021/10/27 02:53:54;;;;;;;9.90;6.07;;;6.00;99.90;;;;;;5034009;28;20453;-54
2021/10/27 02:56:21;;;;;;;8.67;5.57;;;5.90;99.90;;;;;;5032416;28;20527;-54
2021/10/27 02:58:48;;;;;;;9.40;6.53;;;6.00;99.90;;;;;;5033738;28;20453;-53
2021/10/27 03:01:16;;;;;;;10.60;6.97;;;6.00;99.90;;;;;;5033990;28;20525;-54
2021/10/27 03:03:45;;;;;;;9.90;6.50;;;6.10;99.90;;;;;;5033866;28;20486;-53
2021/10/27 03:06:12;;;;;;;12.50;5.90;;;6.10;99.90;;;;;;5031541;28;20460;-54
2021/10/27 03:08:39;;;;;;;8.97;5.70;;;6.00;99.90;;;;;;5025627;28;20449;-54
2021/10/27 03:11:06;;;;;;;10.83;6.63;;;6.00;99.90;;;;;;5032822;28;20473;-52
2021/10/27 03:13:33;;;;;;;10.17;5.80;;;6.00;99.90;;;;;;5034171;28;20441;-52
2021/10/27 03:16:00;;;;;;;7.27;5.03;;;6.10;99.90;;;;;;5033419;28;20803;-52
2021/10/27 03:18:27;;;;;;;6.93;4.97;;;6.10;99.90;;;;;;5014255;28;20876;-52
2021/10/27 03:20:56;;;;;;;8.20;5.40;;;6.10;99.90;;;;;;5013660;28;20469;-52
2021/10/27 03:23:23;;;;;;;7.20;4.70;;;6.00;99.90;;;;;;5014006;28;20910;-52
2021/10/27 03:25:50;;;;;;;7.80;5.53;;;5.90;99.90;;;;;;5023628;28;20478;-52
2021/10/27 03:28:17;;;;;;;8.70;5.40;;;6.00;99.90;;;;;;5033189;28;20449;-52
2021/10/27 03:30:44;;;;;;;7.80;5.30;;;6.00;99.90;;;;;;5033170;28;20543;-52
2021/10/27 03:33:11;;;;;;;6.93;5.50;;;6.00;99.90;;;;;;5033284;28;20457;-52
2021/10/27 03:35:38;;;;;;;8.87;5.93;;;6.10;99.90;;;;;;5033105;28;20452;-51
2021/10/27 03:38:07;;;;;;;9.27;5.70;;;6.10;99.90;;;;;;5017029;28;20477;-52
2021/10/27 03:40:34;;;;;;;8.17;5.30;;;6.10;99.90;;;;;;5026501;28;20456;-52
2021/10/27 03:43:01;;;;;;;7.40;5.40;;;6.00;99.90;;;;;;5032942;28;20484;-52
2021/10/27 03:45:28;;;;;;;9.57;5.80;;;6.10;99.90;;;;;;5018082;28;20544;-51
2021/10/27 03:47:55;;;;;;;14.20;6.00;;;6.10;99.90;;;;;;5033222;28;20509;-52
2021/10/27 03:50:22;;;;;;;9.03;6.40;;;6.10;99.90;;;;;;5032707;28;22509;-51
2021/10/27 03:52:49;;;;;;;11.00;7.00;;;6.00;99.90;;;;;;5033240;28;21017;-52
2021/10/27 03:55:18;;;;;;;12.83;7.90;;;6.00;99.90;;;;;;5032471;28;20461;-53
2021/10/27 03:57:45;;;;;;;11.57;8.00;;;5.90;99.90;;;;;;5033111;28;20522;-54
2021/10/27 04:00:13;;;;;;;12.07;8.03;;;5.80;99.90;;;;;;5033049;28;20449;-53
2021/10/27 04:02:40;;;;;;;11.27;7.87;;;5.80;99.90;;;;;;5032704;28;20480;-54
2021/10/27 04:05:08;;;;;;;10.20;7.40;;;5.70;99.90;;;;;;5021668;28;20453;-53
2021/10/27 04:07:37;;;;;;;9.40;6.80;;;5.70;99.90;;;;;;5032995;28;20506;-54
2021/10/27 04:10:06;;;;;;;13.33;8.53;;;5.60;99.90;;;;;;5032022;28;20488;-53
2021/10/27 04:12:35;;;;;;;16.53;8.70;;;5.60;99.90;;;;;;5031887;28;20469;-54
2021/10/27 04:15:03;;;;;;;11.00;7.13;;;5.60;99.90;;;;;;5024832;28;20448;-54
2021/10/27 04:17:30;;;;;;;11.13;7.20;;;5.60;99.90;;;;;;5032622;28;20477;-52
2021/10/27 04:19:57;;;;;;;9.20;6.63;;;5.50;99.90;;;;;;5032620;28;20459;-52
2021/10/27 04:22:24;;;;;;;6.00;5.30;;;5.50;99.90;;;;;;5018822;28;20485;-54
2021/10/27 04:24:51;;;;;;;9.83;6.90;;;5.30;99.90;;;;;;5022876;28;20456;-53
2021/10/27 04:27:18;;;;;;;8.27;6.03;;;5.30;99.90;;;;;;5032265;28;20456;-51
2021/10/27 04:29:47;;;;;;;8.00;5.83;;;5.30;99.90;;;;;;5032482;28;20448;-52
2021/10/27 04:32:14;;;;;;;8.77;5.70;;;5.20;99.90;;;;;;5031912;28;20476;-53
2021/10/27 04:34:41;;;;;;;7.73;5.97;;;5.20;99.90;;;;;;5020240;28;20495;-53
2021/10/27 04:37:08;;;;;;;7.10;5.70;;;5.20;99.90;;;;;;5012820;28;20453;-53
2021/10/27 04:39:35;;;;;;;9.87;7.00;;;5.30;99.90;;;;;;5012650;28;20457;-53
2021/10/27 04:42:03;;;;;;;9.30;6.00;;;5.30;99.90;;;;;;5020062;28;20468;-54
2021/10/27 04:44:30;;;;;;;8.83;6.30;;;5.20;99.90;;;;;;5024898;28;20531;-54
2021/10/27 04:47:02;;;;;;;10.27;6.80;;;5.30;99.90;;;;;;5030876;28;20456;-53
2021/10/27 04:49:29;;;;;;;12.97;8.47;;;5.30;99.90;;;;;;5032394;28;20452;-54
2021/10/27 04:51:56;;;;;;;9.50;6.90;;;5.20;99.90;;;;;;5031959;28;20473;-53
2021/10/27 04:54:23;;;;;;;9.80;7.00;;;5.20;99.90;;;;;;5027869;28;20791;-53
2021/10/27 04:56:50;;;;;;;11.53;6.77;;;5.10;99.90;;;;;;5012566;28;20499;-53
2021/10/27 04:59:18;;;;;;;11.67;7.13;;;5.20;99.90;;;;;;5026504;28;20543;-53
2021/10/27 05:01:46;;;;;;;10.47;7.50;;;5.20;99.90;;;;;;5018672;28;20477;-53
2021/10/27 05:04:15;;;;;;;14.03;9.00;;;5.20;99.90;;;;;;5031781;28;20508;-53
2021/10/27 05:06:42;;;;;;;20.03;9.27;;;5.10;99.90;;;;;;5031349;28;20539;-53
2021/10/27 05:09:10;;;;;;;13.00;8.93;;;5.20;99.90;;;;;;5021088;28;20532;-53
2021/10/27 05:11:37;;;;;;;15.63;10.00;;;5.10;99.90;;;;;;5031365;28;20708;-51
2021/10/27 05:14:04;;;;;;;15.73;10.00;;;5.10;99.90;;;;;;5031309;28;20452;-53
2021/10/27 05:16:31;;;;;;;13.93;9.27;;;5.10;99.90;;;;;;5028682;28;20453;-54
2021/10/27 05:18:57;;;;;;;14.23;9.10;;;5.10;99.90;;;;;;5031460;28;20979;-54
2021/10/27 05:21:26;;;;;;;14.40;8.57;;;5.10;99.90;;;;;;5019965;28;20543;-51
2021/10/27 05:23:53;;;;;;;15.80;10.17;;;5.00;99.90;;;;;;5020549;28;20903;-51
2021/10/27 05:26:20;;;;;;;19.07;10.80;;;5.00;99.90;;;;;;5031401;28;20883;-53
2021/10/27 05:28:47;;;;;;;17.13;10.67;;;4.90;99.90;;;;;;5031664;28;20506;-54
2021/10/27 05:31:14;;;;;;;18.93;10.17;;;4.90;99.90;;;;;;5031011;28;20472;-54
2021/10/27 05:33:41;;;;;;;15.80;9.23;;;5.00;99.90;;;;;;5031692;28;20449;-53
2021/10/27 05:36:08;;;;;;;15.23;9.60;;;5.00;99.90;;;;;;5016137;28;20450;-54
2021/10/27 05:38:36;;;;;;;18.60;10.30;;;5.00;99.90;;;;;;5028389;28;20448;-53
2021/10/27 05:41:05;;;;;;;21.80;10.57;;;5.00;99.90;;;;;;5033104;28;20522;-53
2021/10/27 05:43:32;;;;;;;18.20;11.00;;;5.00;99.90;;;;;;5033219;28;20565;-53
2021/10/27 05:46:00;;;;;;;17.20;9.37;;;5.00;99.90;;;;;;5035327;28;20890;-53
2021/10/27 05:48:31;;;;;;;17.50;10.70;;;5.00;99.90;;;;;;5030303;28;20481;-53
2021/10/27 05:51:12;;;;;;;16.60;10.90;;;4.90;99.90;;;;;;5033115;28;20472;-53
2021/10/27 05:56:33;;;;;;;18.73;11.87;;;5.00;99.90;;;;;;4987469;28;20813;-53
2021/10/27 05:59:00;;;;;;;15.80;11.73;;;4.80;99.90;;;;;;5034223;28;20455;-53
2021/10/27 06:01:28;;;;;;;13.40;10.03;;;4.90;99.90;;;;;;5028082;28;20457;-53
2021/10/27 06:03:55;;;;;;;13.33;10.13;;;4.90;99.90;;;;;;5016246;28;20473;-54
2021/10/27 06:06:22;;;;;;;16.30;10.20;;;4.90;99.90;;;;;;5030107;28;20448;-53
2021/10/27 06:08:52;;;;;;;13.90;9.33;;;4.90;99.90;;;;;;5034726;28;20530;-54
2021/10/27 06:11:19;;;;;;;13.93;8.53;;;4.80;99.90;;;;;;5028074;28;20585;-54
2021/10/27 06:13:46;;;;;;;13.90;7.87;;;4.80;99.90;;;;;;5026898;28;20847;-53
2021/10/27 06:16:14;;;;;;;9.63;7.60;;;4.80;99.90;;;;;;5028896;28;20457;-53
2021/10/27 06:18:42;;;;;;;12.00;7.93;;;4.80;99.90;;;;;;5034649;28;20966;-53
2021/10/27 06:21:10;;;;;;;13.70;8.43;;;4.70;99.90;;;;;;5032540;28;20518;-53
2021/10/27 06:23:39;;;;;;;12.10;7.90;;;4.80;99.90;;;;;;5021388;28;20472;-53
2021/10/27 06:26:08;;;;;;;10.80;7.83;;;4.90;99.90;;;;;;5015185;28;20889;-53
2021/10/27 06:28:41;;;;;;;10.03;7.17;;;4.90;99.90;;;;;;5017317;28;20455;-53
2021/10/27 06:31:12;;;;;;;11.50;7.67;;;5.00;99.90;;;;;;5032903;28;20484;-52
2021/10/27 06:33:57;;;;;;;10.83;7.63;;;5.00;99.90;;;;;;5024563;28;20444;-54
2021/10/27 06:36:28;;;;;;;13.87;7.10;;;5.10;99.90;;;;;;5031180;28;20510;-53
2021/10/27 06:39:22;;;;;;;10.80;7.90;;;5.20;99.90;;;;;;5029986;28;20464;-54
2021/10/27 06:47:20;;;;;;;12.63;7.70;;;5.00;99.90;;;;;;5033203;28;20440;-53
2021/10/27 06:49:47;;;;;;;13.43;7.50;;;5.10;99.90;;;;;;5033763;28;20457;-53
2021/10/27 06:52:14;;;;;;;15.20;8.47;;;5.20;99.90;;;;;;5034349;28;20527;-55
2021/10/27 06:54:41;;;;;;;11.63;7.93;;;5.40;99.90;;;;;;5033494;28;20507;-56
2021/10/27 06:57:10;;;;;;;11.17;7.63;;;5.40;99.90;;;;;;5024142;28;20885;-56
2021/10/27 06:59:40;;;;;;;11.40;7.47;;;5.60;99.90;;;;;;5022883;28;20938;-55
2021/10/27 07:15:49;;;;;;;9.83;7.03;;;6.00;99.90;;;;;;5024920;28;20451;-56
2021/10/27 07:18:16;;;;;;;14.00;8.20;;;6.00;99.90;;;;;;5016541;28;20446;-55
2021/10/27 07:20:47;;;;;;;17.05;10.65;;;6.20;99.90;;;;;;5026251;28;20453;-56
2021/10/27 07:23:14;;;;;;;15.30;9.30;;;6.40;99.90;;;;;;5017639;28;20282;-53
2021/10/27 07:25:41;;;;;;;10.40;6.80;;;6.80;99.90;;;;;;5032782;28;20471;-53
2021/10/27 07:28:11;;;;;;;7.40;5.07;;;7.10;99.90;;;;;;5022043;28;20445;-54
2021/10/27 07:30:38;;;;;;;7.97;5.63;;;7.40;99.90;;;;;;5020126;28;20461;-53
2021/10/27 07:33:06;;;;;;;6.80;4.23;;;7.60;99.90;;;;;;5069194;23;21069;-49
2021/10/27 07:35:37;;;;;;;7.30;4.60;;;7.90;99.90;;;;;;5046802;28;20467;-50
2021/10/27 07:40:49;;;;;;;4.43;4.00;;;8.30;99.90;;;;;;5041413;28;20981;-49
2021/10/27 07:43:22;;;;;;;9.20;4.47;;;8.40;99.90;;;;;;5042701;28;20484;-51
2021/10/27 07:45:49;;;;;;;8.73;4.33;;;8.20;99.90;;;;;;5042446;28;20495;-52
2021/10/27 07:48:17;;;;;;;5.60;4.40;;;8.40;99.90;;;;;;5046000;28;20479;-52
2021/10/27 07:50:48;;;;;;;9.33;4.00;;;8.50;99.90;;;;;;5040933;28;20445;-51
2021/10/27 07:53:16;;;;;;;6.10;4.20;;;8.60;99.90;;;;;;5041715;28;20925;-51
2021/10/27 07:55:46;;;;;;;6.43;3.67;;;8.60;99.90;;;;;;5042071;28;20464;-52
2021/10/27 07:58:13;;;;;;;7.90;4.00;;;8.60;99.90;;;;;;5044936;28;20551;-50
2021/10/27 08:00:47;;;;;;;7.33;3.90;;;8.60;99.90;;;;;;5046143;28;20489;-51
2021/10/27 08:03:15;;;;;;;4.93;3.97;;;8.50;99.90;;;;;;5034918;28;20495;-51
2021/10/27 08:05:43;;;;;;;6.00;3.90;;;8.60;99.90;;;;;;5042351;28;20468;-50
2021/10/27 08:08:13;;;;;;;5.30;4.23;;;8.60;99.90;;;;;;5037799;28;20468;-52
2021/10/27 08:10:41;;;;;;;7.17;3.37;;;8.60;99.90;;;;;;5039943;28;20841;-51
2021/10/27 08:13:09;;;;;;;4.63;3.33;;;8.60;99.90;;;;;;5042228;28;20479;-51
2021/10/27 08:15:36;;;;;;;5.43;3.80;;;8.70;99.90;;;;;;5043564;28;20555;-51
2021/10/27 08:18:10;;;;;;;5.20;3.50;;;8.90;99.90;;;;;;5040976;28;20467;-50
2021/10/27 08:20:38;;;;;;;5.33;3.30;;;9.20;99.90;;;;;;5040334;28;20528;-50
2021/10/27 08:23:08;;;;;;;4.03;3.10;;;9.20;99.90;;;;;;5041304;28;20541;-51
2021/10/27 08:25:36;;;;;;;4.43;2.87;;;9.40;99.90;;;;;;5044377;28;20447;-51
2021/10/27 08:28:09;;;;;;;5.33;3.60;;;9.50;99.90;;;;;;5038554;28;20465;-50
2021/10/27 08:30:40;;;;;;;4.13;3.03;;;9.60;99.90;;;;;;5039681;28;20459;-51
2021/10/27 08:33:18;;;;;;;3.10;2.80;;;9.40;99.90;;;;;;5040871;28;20515;-50
2021/10/27 08:35:45;;;;;;;3.27;2.33;;;9.40;99.90;;;;;;5041927;28;20463;-50
2021/10/27 08:38:12;;;;;;;4.33;2.50;;;9.50;99.90;;;;;;5040841;28;20960;-51
2021/10/27 08:40:41;;;;;;;3.80;2.40;;;9.80;99.90;;;;;;5042095;28;20521;-49
2021/10/27 08:43:09;;;;;;;3.23;2.03;;;10.30;99.90;;;;;;5042134;28;20484;-50
2021/10/27 08:45:36;;;;;;;2.70;2.40;;;10.90;99.90;;;;;;5040725;28;20471;-51
2021/10/27 08:48:05;;;;;;;2.90;2.33;;;11.70;99.90;;;;;;5042687;28;20463;-50
2021/10/27 08:50:34;;;;;;;2.93;2.33;;;12.30;99.90;;;;;;5042229;28;20520;-50
2021/10/27 08:53:02;;;;;;;2.40;2.10;;;12.80;99.90;;;;;;5041542;28;20486;-51
2021/10/27 08:55:29;;;;;;;3.57;2.33;;;13.30;99.90;;;;;;5042536;28;20965;-51
2021/10/27 08:57:57;;;;;;;2.70;2.50;;;13.90;99.90;;;;;;5042241;28;20471;-51
2021/10/27 09:00:27;;;;;;;3.77;2.00;;;14.20;99.90;;;;;;5043007;28;20459;-52
2021/10/27 09:03:11;;;;;;;4.63;2.40;;;14.40;99.90;;;;;;5040015;28;20479;-52
2021/10/27 09:05:54;;;;;;;2.83;2.63;;;14.40;99.90;;;;;;5039843;28;20854;-52
2021/10/27 09:15:00;;;;;;;2.33;2.13;;;15.50;99.90;;;;;;5042088;28;20444;-50
2021/10/27 09:43:16;;;;;;;2.40;2.20;;;17.10;99.90;;;;;;5041170;28;21058;-51
2021/10/27 10:05:27;;;;;;;4.00;3.10;;;17.40;99.90;;;;;;5039179;28;20475;-50
2021/10/27 10:07:55;;;;;;;2.70;2.50;;;16.90;99.90;;;;;;5036264;28;20493;-51
2021/10/27 10:10:22;;;;;;;2.70;2.50;;;17.00;99.90;;;;;;5041403;28;20872;-51
2021/10/27 10:12:53;;;;;;;6.43;2.50;;;17.10;99.90;;;;;;5043669;28;20471;-50
2021/10/27 10:15:24;;;;;;;4.70;2.87;;;17.40;99.90;;;;;;5042497;28;20464;-49
2021/10/27 10:17:53;;;;;;;3.10;2.80;;;17.00;99.90;;;;;;5042774;28;20463;-50
2021/10/27 10:20:21;;;;;;;2.63;2.43;;;17.20;99.90;;;;;;5037223;28;20554;-50
2021/10/27 10:22:49;;;;;;;2.60;2.23;;;16.90;99.90;;;;;;5043527;28;20479;-50
2021/10/27 10:25:34;;;;;;;2.90;2.20;;;16.70;99.90;;;;;;5043666;28;20488;-49
2021/10/27 10:28:20;;;;;;;2.17;1.97;;;16.30;99.90;;;;;;5044918;28;20602;-50
2021/10/27 10:30:54;;;;;;;2.97;2.30;;;16.00;99.90;;;;;;5045930;28;20514;-49
2021/10/27 10:33:34;;;;;;;3.90;2.47;;;16.00;99.90;;;;;;5041827;28;20501;-49
2021/10/27 10:36:05;;;;;;;9.50;7.40;;;15.90;99.90;;;;;;5054218;28;20459;-49
2021/10/27 10:38:42;;;;;;;12.10;8.07;;;15.00;99.90;;;;;;5054268;28;20444;-49
2021/10/27 10:41:28;;;;;;;11.73;8.87;;;14.00;99.90;;;;;;5054171;28;20447;-49
2021/10/27 11:23:03;;;;;;;10.33;7.20;;;13.80;99.90;;;;;;5053374;28;20889;-49
2021/10/27 11:25:42;;;;;;;12.57;8.03;;;13.70;99.90;;;;;;5053301;28;20529;-50
2021/10/27 11:39:50;;;;;;;10.90;7.07;;;13.70;99.90;;;;;;5010426;28;20440;-49
2021/10/27 11:42:42;;;;;;;13.63;6.83;;;13.90;99.90;;;;;;5010950;28;20469;-52
2021/10/27 11:45:23;;;;;;;14.93;7.70;;;13.90;99.90;;;;;;5032069;28;20488;-49
2021/10/27 11:47:55;;;;;;;11.37;7.60;;;13.90;99.90;;;;;;5053329;28;20828;-51
2021/10/27 11:50:23;;;;;;;11.10;8.10;;;13.60;99.90;;;;;;5052774;28;20513;-51
2021/10/27 11:52:52;;;;;;;11.37;7.80;;;13.80;99.90;;;;;;5052860;28;20949;-50
2021/10/27 11:55:21;;;;;;;11.17;8.10;;;13.50;99.90;;;;;;5052024;28;20509;-50
2021/10/27 11:57:53;;;;;;;12.73;8.37;;;13.20;99.90;;;;;;5051042;28;20828;-50
2021/10/27 12:00:28;;;;;;;12.00;7.80;;;13.10;99.90;;;;;;5032508;28;20531;-51
2021/10/27 12:03:01;;;;;;;13.20;8.93;;;13.00;99.90;;;;;;5032821;28;20527;-53
2021/10/27 12:05:35;;;;;;;11.50;8.53;;;12.90;99.90;;;;;;5039582;28;20568;-50
2021/10/27 12:08:29;;;;;;;14.73;8.73;;;12.90;99.90;;;;;;5051986;28;20455;-52
2021/10/27 12:13:53;;;;;;;10.53;6.07;;;12.80;99.90;;;;;;5041896;28;20432;-50
2021/10/27 12:16:42;;;;;;;7.60;5.70;;;13.00;99.90;;;;;;5051990;28;20452;-52
2021/10/27 12:19:18;;;;;;;9.23;5.57;;;13.10;99.90;;;;;;5052273;28;20961;-51
2021/10/27 12:21:50;;;;;;;6.97;6.03;;;13.40;99.90;;;;;;5052161;28;20529;-51
2021/10/27 12:24:19;;;;;;;8.40;6.43;;;13.40;99.90;;;;;;5052376;28;20487;-51
2021/10/27 12:26:48;;;;;;;9.30;6.13;;;13.30;99.90;;;;;;5051489;28;20846;-51
2021/10/27 12:29:26;;;;;;;10.60;6.43;;;13.30;99.90;;;;;;5052018;28;20961;-50
2021/10/27 12:32:09;;;;;;;7.80;5.47;;;13.30;99.90;;;;;;5051657;28;20483;-50
2021/10/27 12:34:46;;;;;;;7.70;5.97;;;13.50;99.90;;;;;;5050079;28;20551;-52
2021/10/27 12:37:37;;;;;;;9.57;6.10;;;13.60;99.90;;;;;;5041774;28;20458;-51
2021/10/27 12:40:10;;;;;;;6.40;5.70;;;13.80;99.90;;;;;;5048743;28;20470;-52
2021/10/27 12:42:37;;;;;;;6.97;5.40;;;13.90;99.90;;;;;;5052320;28;20464;-51
2021/10/27 12:45:07;;;;;;;8.13;6.00;;;14.00;99.90;;;;;;5050516;28;20483;-54
2021/10/27 12:47:39;;;;;;;5.40;4.43;;;14.20;99.90;;;;;;5036533;28;20451;-50
2021/10/27 12:50:11;;;;;;;7.30;4.30;;;14.30;99.90;;;;;;5051589;28;20549;-50
2021/10/27 12:52:42;;;;;;;6.03;4.70;;;14.30;99.90;;;;;;5051892;28;20537;-51
2021/10/27 12:55:11;;;;;;;8.03;5.67;;;14.40;99.90;;;;;;5051375;28;20456;-52
2021/10/27 12:57:49;;;;;;;6.73;5.13;;;14.40;99.90;;;;;;5051192;28;20536;-50
2021/10/27 13:00:20;;;;;;;5.50;4.40;;;14.60;99.90;;;;;;5051269;28;20451;-53
2021/10/27 13:03:01;;;;;;;7.17;4.70;;;14.80;99.90;;;;;;5048032;28;20531;-51
2021/10/27 13:05:34;;;;;;;5.17;4.03;;;14.40;99.90;;;;;;5040303;28;20475;-51
2021/10/27 13:08:08;;;;;;;6.03;4.30;;;14.40;99.90;;;;;;5051090;28;20451;-52
2021/10/27 13:10:46;;;;;;;6.13;4.70;;;14.40;99.90;;;;;;5051347;28;20531;-52
2021/10/27 13:16:10;;;;;;;4.33;3.90;;;14.50;99.90;;;;;;5050688;28;20958;-51
2021/10/27 13:18:55;;;;;;;8.73;4.10;;;14.30;99.90;;;;;;5051502;28;20447;-51
2021/10/27 13:21:33;;;;;;;5.50;4.60;;;14.40;99.90;;;;;;5050736;28;20478;-51
2021/10/27 13:29:46;;;;;;;7.60;4.53;;;14.40;99.90;;;;;;5046225;28;20463;-51
2021/10/27 13:32:16;;;;;;;5.73;5.03;;;14.40;99.90;;;;;;5051094;28;20498;-52
2021/10/27 13:34:44;;;;;;;6.20;4.30;;;14.40;99.90;;;;;;5051248;28;20896;-51
2021/10/27 13:37:13;;;;;;;5.40;4.10;;;14.50;99.90;;;;;;5062728;23;20566;-56
2021/10/27 13:39:41;;;;;;;5.57;3.73;;;14.50;99.90;;;;;;5025966;28;20449;-56
2021/10/27 13:42:13;;;;;;;4.53;3.87;;;14.40;99.90;;;;;;5030452;28;21009;-56
2021/10/27 13:44:51;;;;;;;3.77;3.27;;;14.30;99.90;;;;;;5030934;28;20481;-56
2021/10/27 13:47:31;;;;;;;3.60;2.90;;;14.30;99.90;;;;;;5027909;28;20472;-56
2021/10/27 14:06:37;;;;;;;7.47;5.30;;;14.20;99.90;;;;;;5048495;28;20482;-55
2021/10/27 14:09:13;;;;;;;7.00;5.10;;;14.10;99.90;;;;;;5055264;28;20451;-56
2021/10/27 14:11:49;;;;;;;8.27;5.13;;;14.00;99.90;;;;;;5054631;28;20455;-56
2021/10/27 14:14:23;;;;;;;8.73;5.40;;;14.00;99.90;;;;;;5055175;28;20447;-55
2021/10/27 14:17:29;;;;;;;7.07;4.90;;;13.90;99.90;;;;;;5055075;28;21004;-55
2021/10/27 14:39:37;;;;;;;7.53;5.33;;;14.00;99.90;;;;;;5054754;28;20454;-56
2021/10/27 14:48:02;;;;;;;6.63;4.80;;;13.90;99.90;;;;;;5054484;28;20450;-55
2021/10/27 15:20:53;;;;;;;11.27;8.33;;;13.30;99.90;;;;;;4992201;28;20427;-55
2021/10/27 15:23:28;;;;;;;12.63;8.43;;;13.40;99.90;;;;;;5038627;28;20513;-55
2021/10/27 15:27:37;;;;;;;12.73;8.90;;;13.30;99.90;;;;;;5053853;28;20556;-55
2021/10/27 15:29:03;;;;;;;13.30;9.33;;;13.10;99.90;;;;;;5053623;28;20444;-55
2021/10/27 15:31:40;;;;;;;11.90;9.00;;;13.00;99.90;;;;;;5053518;28;20945;-55
2021/10/27 15:36:59;;;;;;;13.50;9.40;;;12.90;99.90;;;;;;4983162;28;20485;-56
2021/10/27 15:42:26;;;;;;;13.70;9.10;;;12.70;99.90;;;;;;5023656;28;20439;-55
2021/10/27 15:45:05;;;;;;;13.70;9.53;;;12.80;99.90;;;;;;5053558;28;20989;-55
2021/10/27 15:50:37;;;;;;;13.37;8.47;;;12.80;99.90;;;;;;5053170;28;20423;-56
2021/10/27 15:53:06;;;;;;;12.83;8.43;;;12.80;99.90;;;;;;5053018;28;20903;-56
2021/10/27 15:55:32;;;;;;;12.67;8.50;;;12.60;99.90;;;;;;5041693;28;20440;-56
2021/10/27 15:57:59;;;;;;;13.10;7.93;;;12.60;99.90;;;;;;5053123;28;20495;-56
2021/10/27 16:00:26;;;;;;;11.63;7.93;;;12.50;99.90;;;;;;5047851;28;20464;-56
2021/10/27 16:02:55;;;;;;;9.63;7.03;;;12.50;99.90;;;;;;5034761;28;20449;-56
2021/10/27 16:05:25;;;;;;;15.40;9.80;;;12.30;99.90;;;;;;5033070;28;20488;-56
2021/10/27 16:07:53;;;;;;;9.40;6.83;;;12.30;99.90;;;;;;5031971;28;20485;-56
2021/10/27 16:10:21;;;;;;;8.60;6.97;;;12.20;99.90;;;;;;5029220;28;20462;-55
2021/10/27 16:12:48;;;;;;;12.20;8.33;;;12.10;99.90;;;;;;5042606;28;20817;-55
2021/10/27 16:15:23;;;;;;;12.57;8.13;;;12.00;99.90;;;;;;5040253;28;20441;-54
2021/10/27 16:17:51;;;;;;;16.33;9.40;;;12.00;99.90;;;;;;5032732;28;20472;-56
2021/10/27 16:20:19;;;;;;;13.60;9.27;;;11.90;99.90;;;;;;5031511;28;21036;-56
2021/10/27 16:22:48;;;;;;;13.40;8.60;;;11.80;99.90;;;;;;5035223;28;20453;-56
2021/10/27 16:25:15;;;;;;;14.53;9.43;;;11.80;99.90;;;;;;5032516;28;20558;-56
2021/10/27 16:27:42;;;;;;;14.07;9.60;;;11.70;99.90;;;;;;5032750;28;20476;-55
2021/10/27 16:30:10;;;;;;;12.63;8.60;;;11.70;99.90;;;;;;5032454;28;20448;-56
2021/10/27 16:32:38;;;;;;;18.60;11.43;;;11.60;99.90;;;;;;5034296;28;20448;-56
2021/10/27 16:35:06;;;;;;;16.30;9.77;;;11.60;99.90;;;;;;5032302;28;20441;-56
2021/10/27 16:37:35;;;;;;;18.27;11.43;;;11.50;99.90;;;;;;5012858;28;20539;-55
2021/10/27 16:40:03;;;;;;;17.80;11.07;;;11.50;99.90;;;;;;5032625;28;20449;-55
2021/10/27 16:42:31;;;;;;;24.87;12.73;;;11.40;99.90;;;;;;5031379;28;20460;-55
2021/10/27 16:44:59;;;;;;;20.57;12.33;;;11.40;99.90;;;;;;5031842;28;20448;-56